Time;durP1;ratioP1;P1;durP2;ratioP2;P2;SDS_P1;SDS_P2;PMS_P1;PMS_P2;Temp;Humidity;BMP_temperature;BMP_pressure;BME280_temperature;BME280_humidity;BME280_pressure;Samples;Min_cycle;Max_cycle;Signal;HPM_P1;HPM_P2
2022/04/05 00:00:37;;;;;;;;;;;4.40;99.90;;;;;;2621431;46;19941;31
2022/04/05 00:03:16;;;;;;;;;;;4.50;99.90;;;;;;2603010;54;19943;31
2022/04/05 00:05:54;;;;;;;;;;;4.50;99.90;;;;;;2602892;54;20002;31
2022/04/05 00:08:29;;;;;;;;;;;4.50;99.90;;;;;;2602996;54;19942;31
2022/04/05 00:11:06;;;;;;;;;;;4.50;99.90;;;;;;2603101;54;19983;31
2022/04/05 00:13:42;;;;;;;;;;;4.60;99.90;;;;;;2602724;54;19941;31
2022/04/05 00:16:17;;;;;;;;;;;4.60;99.90;;;;;;2602865;54;19934;31
2022/04/05 00:18:55;;;;;;;;;;;4.50;99.90;;;;;;2602945;54;20725;31
2022/04/05 00:21:30;;;;;;;;;;;4.60;99.90;;;;;;2602708;54;20794;31
2022/04/05 00:24:03;;;;;;;;;;;4.70;99.90;;;;;;2621056;47;20990;31
2022/04/05 00:26:40;;;;;;;;;;;4.70;99.90;;;;;;2601962;54;20018;31
2022/04/05 00:29:22;;;;;;;;;;;4.70;99.90;;;;;;2620974;47;20709;31
2022/04/05 00:31:56;;;;;;;;;;;4.70;99.90;;;;;;2621277;47;19935;31
2022/04/05 00:34:33;;;;;;;;;;;4.70;99.90;;;;;;2620991;47;20781;31
2022/04/05 00:37:08;;;;;;;;;;;4.70;99.90;;;;;;2602504;54;19948;31
2022/04/05 00:39:43;;;;;;;;;;;4.80;99.90;;;;;;2602655;54;19997;31
2022/04/05 00:42:22;;;;;;;;;;;4.80;99.90;;;;;;2621157;47;19935;31
2022/04/05 00:45:02;;;;;;;;;;;4.80;99.90;;;;;;2605570;47;19993;31
2022/04/05 00:47:39;;;;;;;;;;;4.80;99.90;;;;;;2622268;46;19941;31
2022/04/05 00:50:16;;;;;;;;;;;4.80;99.90;;;;;;2603330;54;19942;31
2022/04/05 00:52:54;;;;;;;;;;;4.80;99.90;;;;;;2622281;46;20756;31
2022/04/05 00:55:29;;;;;;;;;;;4.80;99.90;;;;;;2602797;54;20760;31
2022/04/05 00:58:04;;;;;;;;;;;4.90;99.90;;;;;;2603587;54;19942;31
2022/04/05 01:00:40;;;;;;;;;;;4.90;99.90;;;;;;2603572;54;20785;31
2022/04/05 01:03:15;;;;;;;;;;;4.90;99.90;;;;;;2621651;46;19934;31
2022/04/05 01:05:50;;;;;;;;;;;5.00;99.90;;;;;;2621798;46;19935;31
2022/04/05 01:08:27;;;;;;;;;;;4.90;99.90;;;;;;2621962;46;20771;31
2022/04/05 01:11:02;;;;;;;;;;;5.00;99.90;;;;;;2603522;54;19958;31
2022/04/05 01:13:38;;;;;;;;;;;5.00;99.90;;;;;;2603343;54;20009;31
2022/04/05 01:16:13;;;;;;;;;;;5.00;99.90;;;;;;2602837;54;19969;31
2022/04/05 01:18:50;;;;;;;;;;;5.00;99.90;;;;;;2621929;46;19977;31
2022/04/05 01:21:24;;;;;;;;;;;5.00;99.90;;;;;;2603342;54;19946;31
2022/04/05 01:24:12;;;;;;;;;;;5.00;99.90;;;;;;2622031;46;20735;31
2022/04/05 01:26:48;;;;;;;;;;;5.00;99.90;;;;;;2622062;46;20859;31
2022/04/05 01:29:24;;;;;;;;;;;5.00;99.90;;;;;;2621894;46;19946;31
2022/04/05 01:31:58;;;;;;;;;;;5.00;99.90;;;;;;2603090;54;20009;31
2022/04/05 01:34:35;;;;;;;;;;;5.00;99.90;;;;;;2622102;46;20784;31
2022/04/05 01:37:15;;;;;;;;;;;5.00;99.90;;;;;;2603576;54;20688;31
2022/04/05 01:39:52;;;;;;;;;;;5.00;99.90;;;;;;2603350;54;20857;31
2022/04/05 01:42:30;;;;;;;;;;;5.00;99.90;;;;;;2622094;46;19997;31
2022/04/05 01:45:07;;;;;;;;;;;5.00;99.90;;;;;;2621512;46;19941;31
2022/04/05 01:47:42;;;;;;;;;;;5.00;99.90;;;;;;2603305;54;19935;31
2022/04/05 01:50:16;;;;;;;;;;;5.00;99.90;;;;;;2602634;54;20077;31
2022/04/05 01:52:54;;;;;;;;;;;5.00;99.90;;;;;;2621738;46;19934;31
2022/04/05 01:55:28;;;;;;;;;;;5.10;99.90;;;;;;2602802;54;19941;31
2022/04/05 01:58:06;;;;;;;;;;;5.10;99.90;;;;;;2621974;46;20648;31
2022/04/05 02:00:41;;;;;;;;;;;5.10;99.90;;;;;;2621472;46;19978;31
2022/04/05 02:03:18;;;;;;;;;;;5.10;99.90;;;;;;2603220;54;19934;31
2022/04/05 02:05:55;;;;;;;;;;;5.20;99.90;;;;;;2603226;54;19935;31
2022/04/05 02:08:31;;;;;;;;;;;5.10;99.90;;;;;;2603219;54;19941;31
2022/04/05 02:11:06;;;;;;;;;;;5.10;99.90;;;;;;2603093;54;20811;31
2022/04/05 02:13:45;;;;;;;;;;;5.10;99.90;;;;;;2602629;54;20681;31
2022/04/05 02:16:25;;;;;;;;;;;5.10;99.90;;;;;;2602461;54;19941;31
2022/04/05 02:19:00;;;;;;;;;;;5.10;99.90;;;;;;2621560;46;19935;31
2022/04/05 02:21:36;;;;;;;;;;;5.10;99.90;;;;;;2603088;54;19935;31
2022/04/05 02:24:12;;;;;;;;;;;5.10;99.90;;;;;;2603376;54;19939;31
2022/04/05 02:26:48;;;;;;;;;;;5.10;99.90;;;;;;2602938;54;19941;31
2022/04/05 02:29:25;;;;;;;;;;;5.10;99.90;;;;;;2603321;54;19970;31
2022/04/05 02:32:12;;;;;;;;;;;5.10;99.90;;;;;;2602971;54;19947;31
2022/04/05 02:34:49;;;;;;;;;;;5.10;99.90;;;;;;2603170;54;20691;31
2022/04/05 02:37:27;;;;;;;;;;;5.10;99.90;;;;;;2602535;54;19935;31
2022/04/05 02:40:04;;;;;;;;;;;5.10;99.90;;;;;;2602295;54;19946;31
2022/04/05 02:42:42;;;;;;;;;;;5.10;99.90;;;;;;2621602;46;20843;31
2022/04/05 02:45:22;;;;;;;;;;;5.10;99.90;;;;;;2603146;54;20860;31
2022/04/05 02:48:01;;;;;;;;;;;5.10;99.90;;;;;;2603273;54;19954;31
2022/04/05 02:50:37;;;;;;;;;;;5.10;99.90;;;;;;2720370;39;21087;31
2022/04/05 02:53:14;;;;;;;;;;;5.20;99.90;;;;;;2603101;54;20747;31
2022/04/05 02:55:48;;;;;;;;;;;5.20;99.90;;;;;;2602253;54;19968;31
2022/04/05 02:58:23;;;;;;;;;;;5.20;99.90;;;;;;2619152;46;19946;31
2022/04/05 03:01:00;;;;;;;;;;;5.20;99.90;;;;;;2603189;54;19962;31
2022/04/05 03:03:39;;;;;;;;;;;5.20;99.90;;;;;;2621689;46;19981;31
2022/04/05 03:06:17;;;;;;;;;;;5.20;99.90;;;;;;2720459;39;22328;31
2022/04/05 03:08:56;;;;;;;;;;;5.20;99.90;;;;;;2603219;54;19934;31
2022/04/05 03:11:31;;;;;;;;;;;5.20;99.90;;;;;;2621663;46;20731;31
2022/04/05 03:14:08;;;;;;;;;;;5.30;99.90;;;;;;2603021;54;19989;31
2022/04/05 03:16:43;;;;;;;;;;;5.30;99.90;;;;;;2602884;54;19989;31
2022/04/05 03:19:27;;;;;;;;;;;5.30;99.90;;;;;;2603208;54;19962;31
2022/04/05 03:22:05;;;;;;;;;;;5.30;99.90;;;;;;2603090;54;20016;31
2022/04/05 03:24:39;;;;;;;;;;;5.30;99.90;;;;;;2602226;54;19942;31
2022/04/05 03:27:14;;;;;;;;;;;5.30;99.90;;;;;;2603193;54;20794;31
2022/04/05 03:29:51;;;;;;;;;;;5.30;99.90;;;;;;2621643;46;19935;31
2022/04/05 03:32:28;;;;;;;;;;;5.30;99.90;;;;;;2603017;54;19957;31
2022/04/05 03:35:07;;;;;;;;;;;5.40;99.90;;;;;;2621715;46;20737;31
2022/04/05 03:37:43;;;;;;;;;;;5.30;99.90;;;;;;2603085;54;20013;31
2022/04/05 03:40:20;;;;;;;;;;;5.30;99.90;;;;;;2602854;54;19935;31
2022/04/05 03:42:55;;;;;;;;;;;5.40;99.90;;;;;;2602891;54;19938;31
2022/04/05 03:45:34;;;;;;;;;;;5.40;99.90;;;;;;2603079;54;20737;31
2022/04/05 03:48:10;;;;;;;;;;;5.40;99.90;;;;;;2621514;46;19941;31
2022/04/05 03:50:51;;;;;;;;;;;5.40;99.90;;;;;;2621438;46;20704;31
2022/04/05 03:53:26;;;;;;;;;;;5.40;99.90;;;;;;2621541;46;19943;31
2022/04/05 03:56:01;;;;;;;;;;;5.40;99.90;;;;;;2621544;46;19993;31
2022/04/05 03:58:40;;;;;;;;;;;5.40;99.90;;;;;;2602953;54;20739;31
2022/04/05 04:01:15;;;;;;;;;;;5.40;99.90;;;;;;2602222;54;20755;31
2022/04/05 04:03:50;;;;;;;;;;;5.50;99.90;;;;;;2602223;54;19935;31
2022/04/05 04:06:28;;;;;;;;;;;5.50;99.90;;;;;;2603022;54;19947;31
2022/04/05 04:09:05;;;;;;;;;;;5.50;99.90;;;;;;2602857;54;20801;31
2022/04/05 04:11:44;;;;;;;;;;;5.50;99.90;;;;;;2602658;54;20013;31
2022/04/05 04:14:21;;;;;;;;;;;5.50;99.90;;;;;;2602927;54;20743;31
2022/04/05 04:16:57;;;;;;;;;;;5.50;99.90;;;;;;2602811;54;20829;31
2022/04/05 04:19:32;;;;;;;;;;;5.50;99.90;;;;;;2602621;54;20677;31
2022/04/05 04:22:08;;;;;;;;;;;5.50;99.90;;;;;;2621556;46;20002;31
2022/04/05 04:24:45;;;;;;;;;;;5.60;99.90;;;;;;2606922;47;20657;31
2022/04/05 04:27:24;;;;;;;;;;;5.60;99.90;;;;;;2602920;54;20756;31
2022/04/05 04:29:59;;;;;;;;;;;5.60;99.90;;;;;;2621429;47;19958;31
2022/04/05 04:32:36;;;;;;;;;;;5.60;99.90;;;;;;2602439;54;19998;31
2022/04/05 04:35:11;;;;;;;;;;;5.70;99.90;;;;;;2602931;54;20806;31
2022/04/05 04:37:49;;;;;;;;;;;5.70;99.90;;;;;;2621349;47;19951;31
2022/04/05 04:40:23;;;;;;;;;;;5.70;99.90;;;;;;2602830;54;19939;31
2022/04/05 04:43:01;;;;;;;;;;;5.70;99.90;;;;;;2602484;54;19935;31
2022/04/05 04:45:40;;;;;;;;;;;5.70;99.90;;;;;;2602706;54;19941;31
2022/04/05 04:48:17;;;;;;;;;;;5.70;99.90;;;;;;2602928;54;20741;31
2022/04/05 04:50:54;;;;;;;;;;;5.70;99.90;;;;;;2602637;54;21340;31
2022/04/05 04:53:29;;;;;;;;;;;5.70;99.90;;;;;;2602692;54;19941;31
2022/04/05 04:56:03;;;;;;;;;;;5.70;99.90;;;;;;2621365;47;19962;31
2022/04/05 04:58:47;;;;;;;;;;;5.70;99.90;;;;;;2602538;54;20784;31
2022/04/05 05:01:23;;;;;;;;;;;5.70;99.90;;;;;;2601940;54;19961;31
2022/04/05 05:04:00;;;;;;;;;;;5.70;99.90;;;;;;2617308;47;19949;31
2022/04/05 05:06:35;;;;;;;;;;;5.80;99.90;;;;;;2602833;54;20765;31
2022/04/05 05:09:10;;;;;;;;;;;5.80;99.90;;;;;;2602618;54;19934;31
2022/04/05 05:11:46;;;;;;;;;;;5.80;99.90;;;;;;2602455;54;19935;31
2022/04/05 05:14:24;;;;;;;;;;;5.80;99.90;;;;;;2602561;54;19942;31
2022/04/05 05:17:02;;;;;;;;;;;5.80;99.90;;;;;;2602643;54;20770;31
2022/04/05 05:19:37;;;;;;;;;;;5.80;99.90;;;;;;2602680;54;19942;31
2022/04/05 05:22:14;;;;;;;;;;;5.80;99.90;;;;;;2602488;54;20657;31
2022/04/05 05:24:48;;;;;;;;;;;5.70;99.90;;;;;;2620697;47;19961;31
2022/04/05 05:27:22;;;;;;;;;;;5.80;99.90;;;;;;2602671;54;19934;31
2022/04/05 05:30:00;;;;;;;;;;;5.80;99.90;;;;;;2602739;54;20754;31
2022/04/05 05:32:37;;;;;;;;;;;5.80;99.90;;;;;;2603257;54;19935;31
2022/04/05 05:35:12;;;;;;;;;;;5.80;99.90;;;;;;2603358;54;19935;31
2022/04/05 05:37:47;;;;;;;;;;;5.80;99.90;;;;;;2603187;54;19938;31
2022/04/05 05:40:22;;;;;;;;;;;5.70;99.90;;;;;;2603367;54;20887;31
2022/04/05 05:42:58;;;;;;;;;;;5.70;99.90;;;;;;2603303;54;20796;31
2022/04/05 05:45:32;;;;;;;;;;;5.90;99.90;;;;;;2603365;54;20028;31
2022/04/05 05:48:10;;;;;;;;;;;5.90;99.90;;;;;;2621837;46;19934;31
2022/04/05 05:50:46;;;;;;;;;;;5.90;99.90;;;;;;2603572;54;20787;31
2022/04/05 05:53:21;;;;;;;;;;;5.80;99.90;;;;;;2621735;46;20749;31
2022/04/05 05:55:56;;;;;;;;;;;5.80;99.90;;;;;;2603301;54;20794;31
2022/04/05 05:58:32;;;;;;;;;;;5.70;99.90;;;;;;2621793;46;19934;31
2022/04/05 06:01:06;;;;;;;;;;;5.70;99.90;;;;;;2603397;54;20777;31
2022/04/05 06:03:43;;;;;;;;;;;5.70;99.90;;;;;;2621988;46;20809;31
2022/04/05 06:06:19;;;;;;;;;;;5.70;99.90;;;;;;2603067;54;19962;31
2022/04/05 06:08:56;;;;;;;;;;;5.70;99.90;;;;;;2603072;54;19935;31
2022/04/05 06:11:33;;;;;;;;;;;5.70;99.90;;;;;;2603312;54;19935;31
2022/04/05 06:14:10;;;;;;;;;;;5.70;99.90;;;;;;2603374;54;20775;31
2022/04/05 06:16:45;;;;;;;;;;;5.70;99.90;;;;;;2603602;54;20740;31
2022/04/05 06:19:23;;;;;;;;;;;5.70;99.90;;;;;;2621469;46;20739;31
2022/04/05 06:21:58;;;;;;;;;;;5.80;99.90;;;;;;2603355;54;19934;31
2022/04/05 06:24:31;;;;;;;;;;;5.80;99.90;;;;;;2603109;54;21239;31
2022/04/05 06:27:08;;;;;;;;;;;5.80;99.90;;;;;;2621850;46;19973;31
2022/04/05 06:29:42;;;;;;;;;;;5.80;99.90;;;;;;2603176;54;20791;31
2022/04/05 06:32:18;;;;;;;;;;;5.80;99.90;;;;;;2621760;46;20662;31
2022/04/05 06:34:57;;;;;;;;;;;5.80;99.90;;;;;;2603285;54;19934;31
2022/04/05 06:37:32;;;;;;;;;;;5.80;99.90;;;;;;2603131;54;20704;31
2022/04/05 06:40:10;;;;;;;;;;;5.80;99.90;;;;;;2621436;46;19990;31
2022/04/05 06:42:44;;;;;;;;;;;5.90;99.90;;;;;;2602936;54;19941;31
2022/04/05 06:45:22;;;;;;;;;;;6.00;99.90;;;;;;2701936;39;21043;31
2022/04/05 06:47:56;;;;;;;;;;;6.10;99.90;;;;;;2621664;46;19935;31
2022/04/05 06:50:35;;;;;;;;;;;6.10;99.90;;;;;;2603268;54;20766;31
2022/04/05 06:53:11;;;;;;;;;;;6.10;99.90;;;;;;2621731;46;20751;31
2022/04/05 06:55:46;;;;;;;;;;;6.10;99.90;;;;;;2621678;46;19945;31
2022/04/05 06:58:24;;;;;;;;;;;6.10;99.90;;;;;;2603277;54;19981;31
2022/04/05 07:01:00;;;;;;;;;;;6.10;99.90;;;;;;2602994;54;19935;31
2022/04/05 07:03:35;;;;;;;;;;;6.20;99.90;;;;;;2603250;54;19950;31
2022/04/05 07:09:07;;;;;;;;;;;6.20;99.90;;;;;;2621602;46;20729;31
2022/04/05 07:11:41;;;;;;;;;;;6.20;99.90;;;;;;2621865;46;20776;31
2022/04/05 07:14:17;;;;;;;;;;;6.20;99.90;;;;;;2603093;54;20846;31
2022/04/05 07:16:52;;;;;;;;;;;6.20;99.90;;;;;;2621961;46;20756;31
2022/04/05 07:19:28;;;;;;;;;;;6.20;99.90;;;;;;2621145;46;19934;31
2022/04/05 07:22:03;;;;;;;;;;;6.20;99.90;;;;;;2602971;54;20781;31
2022/04/05 07:24:42;;;;;;;;;;;6.20;99.90;;;;;;2603184;54;19942;31
2022/04/05 07:27:18;;;;;;;;;;;6.20;99.90;;;;;;2602972;54;19941;31
2022/04/05 07:29:55;;;;;;;;;;;6.10;99.90;;;;;;2602208;54;19962;31
2022/04/05 07:32:39;;;;;;;;;;;6.10;99.90;;;;;;2602538;54;20747;31
2022/04/05 07:35:21;;;;;;;;;;;6.10;99.90;;;;;;2603045;54;19942;31
2022/04/05 07:37:56;;;;;;;;;;;6.10;99.90;;;;;;2602821;54;19942;31
2022/04/05 07:43:22;;;;;;;;;;;6.20;99.90;;;;;;2602977;54;19935;31
2022/04/05 07:46:01;;;;;;;;;;;6.10;99.90;;;;;;2620773;46;19935;31
2022/04/05 07:51:23;;;;;;;;;;;6.00;99.90;;;;;;2602913;54;19935;31
2022/04/05 07:54:01;;;;;;;;;;;5.90;99.90;;;;;;2620560;46;19987;31
2022/04/05 07:56:39;;;;;;;;;;;5.90;99.90;;;;;;2602629;54;19947;31
2022/04/05 07:59:17;;;;;;;;;;;5.90;99.90;;;;;;2621385;46;20011;31
2022/04/05 08:01:51;;;;;;;;;;;5.80;99.90;;;;;;2620536;46;19941;31
2022/04/05 08:04:42;;;;;;;;;;;5.80;99.90;;;;;;2621491;46;20763;31
2022/04/05 08:07:20;;;;;;;;;;;5.80;99.90;;;;;;2701197;39;21344;31
2022/04/05 08:09:54;;;;;;;;;;;5.80;99.90;;;;;;2603031;54;21334;31
2022/04/05 08:12:32;;;;;;;;;;;5.90;99.90;;;;;;2602751;54;20008;31
2022/04/05 08:15:13;;;;;;;;;;;5.90;99.90;;;;;;2602698;54;19934;31
2022/04/05 08:17:52;;;;;;;;;;;5.90;99.90;;;;;;2602972;54;19941;31
2022/04/05 08:23:15;;;;;;;;;;;6.00;99.90;;;;;;2621224;46;20782;31
2022/04/05 08:25:57;;;;;;;;;;;6.00;99.90;;;;;;2621140;47;19946;31
2022/04/05 08:28:34;;;;;;;;;;;6.00;99.90;;;;;;2621453;47;20833;31
2022/04/05 08:31:10;;;;;;;;;;;6.00;99.90;;;;;;2602736;54;20777;31
2022/04/05 08:33:48;;;;;;;;;;;6.00;99.90;;;;;;2602764;54;20645;31
2022/04/05 08:36:23;;;;;;;;;;;6.00;99.90;;;;;;2602435;54;20807;31
2022/04/05 08:38:56;;;;;;;;;;;6.10;99.90;;;;;;2621165;47;19935;31
2022/04/05 08:41:35;;;;;;;;;;;6.10;99.90;;;;;;2621556;47;20489;31
2022/04/05 08:44:12;;;;;;;;;;;6.10;99.90;;;;;;2621033;47;19941;31
2022/04/05 08:46:50;;;;;;;;;;;6.00;99.90;;;;;;2602897;54;19934;31
2022/04/05 08:49:24;;;;;;;;;;;6.00;99.90;;;;;;2621370;47;20792;31
2022/04/05 08:51:58;;;;;;;;;;;6.00;99.90;;;;;;2619952;47;20009;31
2022/04/05 08:54:38;;;;;;;;;;;5.80;99.90;;;;;;2601908;54;19935;31
2022/04/05 08:57:19;;;;;;;;;;;6.00;99.90;;;;;;2621035;47;20793;31
2022/04/05 08:59:56;;;;;;;;;;;6.00;99.90;;;;;;2602513;54;19935;31
2022/04/05 09:02:36;;;;;;;;;;;6.10;99.90;;;;;;2601745;54;19954;31
2022/04/05 09:08:13;;;;;;;;;;;6.40;99.90;;;;;;2603815;54;20805;31
2022/04/05 09:10:47;;;;;;;;;;;6.50;99.90;;;;;;2622215;46;19935;31
2022/04/05 09:13:25;;;;;;;;;;;6.60;99.90;;;;;;2603525;54;19946;31
2022/04/05 09:16:04;;;;;;;;;;;6.60;99.90;;;;;;2603427;54;20753;31
2022/04/05 09:18:46;;;;;;;;;;;6.60;99.90;;;;;;2603288;54;19941;31
2022/04/05 09:21:21;;;;;;;;;;;6.60;99.90;;;;;;2603367;54;19941;31
2022/04/05 09:23:55;;;;;;;;;;;6.60;99.90;;;;;;2603458;54;19946;31
2022/04/05 09:26:31;;;;;;;;;;;6.60;99.90;;;;;;2603261;54;20021;31
2022/04/05 09:29:41;;;;;;;;;;;6.70;99.90;;;;;;2603613;54;19988;31
2022/04/05 09:32:18;;;;;;;;;;;7.00;99.90;;;;;;2603406;54;19934;31
2022/04/05 09:37:26;;;;;;;;;;;;;;;;;;2602867;54;19962;31
2022/04/05 09:40:12;;;;;;;;;;;7.30;99.90;;;;;;2621462;46;20024;31
2022/04/05 09:42:53;;;;;;;;;;;7.90;99.90;;;;;;2621541;46;19947;31
2022/04/05 09:45:43;;;;;;;;;;;7.40;99.90;;;;;;2618347;46;19996;31
2022/04/05 09:48:22;;;;;;;;;;;7.40;99.90;;;;;;2621846;46;19939;31
2022/04/05 09:51:01;;;;;;;;;;;7.40;99.90;;;;;;2612393;46;20671;31
2022/04/05 09:53:46;;;;;;;;;;;7.40;99.90;;;;;;2602586;54;19934;31
2022/04/05 09:56:32;;;;;;;;;;;7.50;99.90;;;;;;2602693;54;19945;31
2022/04/05 09:59:18;;;;;;;;;;;7.50;99.90;;;;;;2602897;54;21768;31
2022/04/05 10:01:56;;;;;;;;;;;7.60;99.90;;;;;;2603238;54;19993;31
2022/04/05 10:04:33;;;;;;;;;;;7.70;99.90;;;;;;2702098;39;22087;31
2022/04/05 10:07:08;;;;;;;;;;;7.70;99.90;;;;;;2602980;54;20751;31
2022/04/05 10:09:45;;;;;;;;;;;7.80;99.90;;;;;;2602603;54;19934;31
2022/04/05 10:12:20;;;;;;;;;;;7.80;99.90;;;;;;2603581;54;19942;31
2022/04/05 10:17:54;;;;;;;;;;;7.90;99.90;;;;;;2602904;54;19965;31
2022/04/05 10:20:30;;;;;;;;;;;8.00;99.90;;;;;;2602942;54;20017;31
2022/04/05 10:23:06;;;;;;;;;;;8.00;99.90;;;;;;2622036;46;20757;31
2022/04/05 10:25:43;;;;;;;;;;;8.00;99.90;;;;;;2603274;54;20751;31
2022/04/05 10:28:22;;;;;;;;;;;8.00;99.90;;;;;;2603070;54;19934;31
2022/04/05 10:33:48;;;;;;;;;;;8.00;99.90;;;;;;2602865;54;19935;31
2022/04/05 10:36:27;;;;;;;;;;;8.10;99.90;;;;;;2603082;54;19934;31
2022/04/05 10:39:22;;;;;;;;;;;8.10;99.90;;;;;;2621472;46;19935;31
2022/04/05 10:42:20;;;;;;;;;;;8.30;99.90;;;;;;2621533;46;20706;31
2022/04/05 10:44:57;;;;;;;;;;;8.70;99.90;;;;;;2603178;54;20729;31
2022/04/05 10:50:52;;;;;;;;;;;8.90;99.90;;;;;;2602835;54;20025;31
2022/04/05 10:56:28;;;;;;;;;;;8.90;99.90;;;;;;2602809;54;20759;31
2022/04/05 10:59:10;;;;;;;;;;;9.00;99.90;;;;;;2602759;54;20013;31
2022/04/05 11:11:10;;;;;;;;;;;9.10;99.90;;;;;;2701782;39;21006;31
2022/04/05 11:13:58;;;;;;;;;;;9.20;99.90;;;;;;2621692;46;20658;31
2022/04/05 11:16:42;;;;;;;;;;;9.10;99.90;;;;;;2602977;54;19941;31
2022/04/05 11:22:14;;;;;;;;;;;9.10;99.90;;;;;;2603042;54;19935;31
2022/04/05 11:25:00;;;;;;;;;;;9.10;99.90;;;;;;2602782;54;20743;31
2022/04/05 11:27:52;;;;;;;;;;;9.10;99.90;;;;;;2602817;54;19962;31
2022/04/05 11:31:02;;;;;;;;;;;;;;;;;;;;;
2022/04/05 11:33:54;;;;;;;;;;;9.20;99.90;;;;;;2602669;54;20075;31
2022/04/05 11:36:32;;;;;;;;;;;9.40;99.90;;;;;;2621049;46;19990;31
2022/04/05 11:39:10;;;;;;;;;;;9.20;99.90;;;;;;2621719;46;20803;31
2022/04/05 11:53:36;;;;;;;;;;;9.30;99.90;;;;;;2605387;46;20001;31
2022/04/05 11:56:17;;;;;;;;;;;9.30;99.90;;;;;;2602077;54;20776;31
2022/04/05 11:59:13;;;;;;;;;;;9.40;99.90;;;;;;2602567;54;19946;31
2022/04/05 12:02:01;;;;;;;;;;;9.40;99.90;;;;;;2602710;54;19941;31
2022/04/05 12:04:39;;;;;;;;;;;9.40;99.90;;;;;;2602650;54;19935;31
2022/04/05 12:10:02;;;;;;;;;;;9.30;99.90;;;;;;2602768;54;19938;31
2022/04/05 12:12:49;;;;;;;;;;;9.30;99.90;;;;;;2602750;54;20763;31
2022/04/05 12:15:27;;;;;;;;;;;9.50;99.90;;;;;;2701538;39;20982;31
2022/04/05 12:18:24;;;;;;;;;;;9.40;99.90;;;;;;2602799;54;20041;31
2022/04/05 12:21:01;;;;;;;;;;;9.40;99.90;;;;;;2602670;54;20739;31
2022/04/05 12:23:39;;;;;;;;;;;9.40;99.90;;;;;;2602613;54;19942;31
2022/04/05 12:26:21;;;;;;;;;;;9.40;99.90;;;;;;2602773;54;20769;31
2022/04/05 12:28:58;;;;;;;;;;;9.40;99.90;;;;;;2601916;54;20759;31
2022/04/05 12:34:36;;;;;;;;;;;9.60;99.90;;;;;;2602763;54;19962;31
2022/04/05 12:37:17;;;;;;;;;;;9.60;99.90;;;;;;2621110;47;19934;31
2022/04/05 12:40:10;;;;;;;;;;;9.70;99.90;;;;;;2602918;54;21804;31
2022/04/05 12:42:49;;;;;;;;;;;9.80;99.90;;;;;;2603336;54;20804;31
2022/04/05 12:45:29;;;;;;;;;;;9.80;99.90;;;;;;2603385;54;19954;31
2022/04/05 12:48:16;;;;;;;;;;;9.80;99.90;;;;;;2603327;54;19935;31
2022/04/05 12:50:55;;;;;;;;;;;9.80;99.90;;;;;;2603299;54;19934;31
2022/04/05 12:53:33;;;;;;;;;;;9.80;99.90;;;;;;2622031;46;20723;31
2022/04/05 12:56:13;;;;;;;;;;;9.90;99.90;;;;;;2610951;46;19990;31
2022/04/05 12:58:52;;;;;;;;;;;9.80;99.90;;;;;;2602682;54;19943;31
2022/04/05 13:01:29;;;;;;;;;;;9.70;99.90;;;;;;2609384;46;19970;31
2022/04/05 13:04:13;;;;;;;;;;;9.60;99.90;;;;;;2603423;54;20779;31
2022/04/05 13:07:07;;;;;;;;;;;9.80;99.90;;;;;;2621092;46;19935;31
2022/04/05 13:09:52;;;;;;;;;;;9.90;99.90;;;;;;2603413;54;19941;31
2022/04/05 13:12:34;;;;;;;;;;;9.90;99.90;;;;;;2603637;54;19957;31
2022/04/05 13:15:16;;;;;;;;;;;9.80;99.90;;;;;;2621656;46;19935;31
2022/04/05 13:17:52;;;;;;;;;;;9.70;99.90;;;;;;2603250;54;19934;31
2022/04/05 13:20:30;;;;;;;;;;;9.70;99.90;;;;;;2614948;46;19950;31
2022/04/05 13:23:08;;;;;;;;;;;9.70;99.90;;;;;;2602428;54;20802;31
2022/04/05 13:25:48;;;;;;;;;;;9.60;99.90;;;;;;2621876;46;19942;31
2022/04/05 13:28:33;;;;;;;;;;;9.60;99.90;;;;;;2603166;54;19957;31
2022/04/05 13:31:12;;;;;;;;;;;9.50;99.90;;;;;;2621891;46;19935;31
2022/04/05 13:33:46;;;;;;;;;;;9.40;99.90;;;;;;2603203;54;20870;31
2022/04/05 13:36:21;;;;;;;;;;;9.40;99.90;;;;;;2603139;54;19935;31
2022/04/05 13:38:58;;;;;;;;;;;9.40;99.90;;;;;;2603272;54;19942;31
2022/04/05 13:41:36;;;;;;;;;;;9.30;99.90;;;;;;2603036;54;19962;31
2022/04/05 13:44:13;;;;;;;;;;;9.30;99.90;;;;;;2621668;46;19935;31
2022/04/05 13:46:57;;;;;;;;;;;9.30;99.90;;;;;;2602709;54;20021;31
2022/04/05 13:49:32;;;;;;;;;;;9.30;99.90;;;;;;2613461;46;20753;31
2022/04/05 13:52:10;;;;;;;;;;;9.20;99.90;;;;;;2601967;54;19997;31
2022/04/05 13:55:07;;;;;;;;;;;9.20;99.90;;;;;;2621762;46;20008;31
2022/04/05 13:57:41;;;;;;;;;;;9.10;99.90;;;;;;2602461;54;19942;31
2022/04/05 14:00:18;;;;;;;;;;;9.10;99.90;;;;;;2621780;46;20743;31
2022/04/05 14:02:57;;;;;;;;;;;9.10;99.90;;;;;;2621535;46;19935;31
2022/04/05 14:05:34;;;;;;;;;;;9.10;99.90;;;;;;2603299;54;20793;31
2022/04/05 14:08:23;;;;;;;;;;;9.10;99.90;;;;;;2621918;46;19946;31
2022/04/05 14:11:00;;;;;;;;;;;9.00;99.90;;;;;;2603091;54;19935;31
2022/04/05 14:13:59;;;;;;;;;;;9.00;99.90;;;;;;2602880;54;19934;31
2022/04/05 14:16:36;;;;;;;;;;;8.90;99.90;;;;;;2621670;46;20694;31
2022/04/05 14:19:14;;;;;;;;;;;8.80;99.90;;;;;;2621473;46;19942;31
2022/04/05 14:21:52;;;;;;;;;;;8.80;99.90;;;;;;2621758;46;20681;31
2022/04/05 14:24:28;;;;;;;;;;;8.70;99.90;;;;;;2603077;54;19957;31
2022/04/05 14:27:06;;;;;;;;;;;8.70;99.90;;;;;;2603215;54;19941;31
2022/04/05 14:29:42;;;;;;;;;;;8.70;99.90;;;;;;2602923;54;19934;31
2022/04/05 14:32:16;;;;;;;;;;;8.70;99.90;;;;;;2603051;54;20654;31
2022/04/05 14:34:57;;;;;;;;;;;8.80;99.90;;;;;;2603032;54;20763;31
2022/04/05 14:40:45;;;;;;;;;;;8.80;99.90;;;;;;2603029;54;20763;31
2022/04/05 14:43:26;;;;;;;;;;;8.80;99.90;;;;;;2602934;54;19935;31
2022/04/05 14:46:03;;;;;;;;;;;8.80;99.90;;;;;;2603011;54;19935;31
2022/04/05 14:48:46;;;;;;;;;;;8.90;99.90;;;;;;2602987;54;20765;31
2022/04/05 14:51:42;;;;;;;;;;;8.70;99.90;;;;;;2621455;46;19934;31
2022/04/05 14:54:37;;;;;;;;;;;;;;;;;;;;;
2022/04/05 14:57:39;;;;;;;;;;;8.70;99.90;;;;;;2603027;54;19934;31
2022/04/05 15:42:44;;;;;;;;;;;8.90;99.90;;;;;;2602731;54;19942;31
2022/04/05 15:45:22;;;;;;;;;;;8.90;99.90;;;;;;2719628;39;20980;31
2022/04/05 15:48:13;;;;;;;;;;;8.90;99.90;;;;;;2602758;54;20755;31
2022/04/05 15:50:49;;;;;;;;;;;9.10;99.90;;;;;;2701420;39;20386;31
2022/04/05 15:53:28;;;;;;;;;;;9.20;99.90;;;;;;2620922;46;20753;31
2022/04/05 15:56:13;;;;;;;;;;;9.20;99.90;;;;;;2620979;46;19989;31
2022/04/05 15:58:50;;;;;;;;;;;9.30;99.90;;;;;;2602601;54;20838;31
2022/04/05 16:01:28;;;;;;;;;;;9.10;99.90;;;;;;2602497;54;19982;31
2022/04/05 16:04:21;;;;;;;;;;;9.00;99.90;;;;;;2621221;46;20011;31
2022/04/05 16:06:55;;;;;;;;;;;9.00;99.90;;;;;;2602850;54;19934;31
2022/04/05 16:09:32;;;;;;;;;;;9.10;99.90;;;;;;2602758;54;19935;31
2022/04/05 16:12:16;;;;;;;;;;;9.10;99.90;;;;;;2621389;46;19934;31
2022/04/05 16:14:51;;;;;;;;;;;9.10;99.90;;;;;;2604476;46;20026;31
2022/04/05 16:17:27;;;;;;;;;;;9.00;99.90;;;;;;2602923;54;20674;31
2022/04/05 16:20:19;;;;;;;;;;;9.00;99.90;;;;;;2602539;54;20787;31
2022/04/05 16:22:57;;;;;;;;;;;9.00;99.90;;;;;;2701246;39;20993;31
2022/04/05 16:25:45;;;;;;;;;;;;;;;;;;;;;
2022/04/05 16:28:23;;;;;;;;;;;8.90;99.90;;;;;;2602502;54;20014;31
2022/04/05 16:31:01;;;;;;;;;;;9.10;99.90;;;;;;2621330;47;19957;31
2022/04/05 16:33:39;;;;;;;;;;;8.80;99.90;;;;;;2605375;47;19980;31
2022/04/05 16:36:18;;;;;;;;;;;8.80;99.90;;;;;;2602437;54;20785;31
2022/04/05 16:38:52;;;;;;;;;;;8.80;99.90;;;;;;2602328;54;20702;31
2022/04/05 16:41:30;;;;;;;;;;;8.80;99.90;;;;;;2602855;54;20001;31
2022/04/05 16:44:08;;;;;;;;;;;8.80;99.90;;;;;;2602467;54;19939;31
2022/04/05 16:46:51;;;;;;;;;;;8.70;99.90;;;;;;2610265;47;20024;31
2022/04/05 16:49:26;;;;;;;;;;;8.70;99.90;;;;;;2621023;47;19957;31
2022/04/05 16:52:03;;;;;;;;;;;8.70;99.90;;;;;;2621305;47;19935;31
2022/04/05 16:54:39;;;;;;;;;;;8.80;99.90;;;;;;2612144;47;19968;31
2022/04/05 16:57:14;;;;;;;;;;;8.80;99.90;;;;;;2601791;54;20017;31
2022/04/05 16:59:50;;;;;;;;;;;8.70;99.90;;;;;;2602237;54;19978;31
2022/04/05 17:02:24;;;;;;;;;;;8.70;99.90;;;;;;2602480;54;20563;31
2022/04/05 17:08:21;;;;;;;;;;;8.70;99.90;;;;;;2602259;54;20021;31
2022/04/05 17:11:07;;;;;;;;;;;8.70;99.90;;;;;;2602355;54;19938;31
2022/04/05 17:13:48;;;;;;;;;;;8.70;99.90;;;;;;2602708;54;20699;31
2022/04/05 17:16:23;;;;;;;;;;;8.70;99.90;;;;;;2621028;47;20679;31
2022/04/05 17:18:59;;;;;;;;;;;8.60;99.90;;;;;;2620841;47;19997;31
2022/04/05 17:21:36;;;;;;;;;;;8.60;99.90;;;;;;2602237;54;19938;31
2022/04/05 17:24:16;;;;;;;;;;;8.60;99.90;;;;;;2620925;47;20725;31
2022/04/05 17:26:55;;;;;;;;;;;8.50;99.90;;;;;;2603155;54;20795;31
2022/04/05 17:29:31;;;;;;;;;;;8.50;99.90;;;;;;2603531;54;20748;31
2022/04/05 17:35:03;;;;;;;;;;;8.40;99.90;;;;;;2602144;54;20675;31
2022/04/05 17:38:00;;;;;;;;;;;8.50;99.90;;;;;;2620362;46;19943;31
2022/04/05 17:40:40;;;;;;;;;;;8.50;99.90;;;;;;2603362;54;19934;31
2022/04/05 17:43:22;;;;;;;;;;;8.40;99.90;;;;;;2621950;46;20735;31